createdAt,value
2023-01-13T00:00:28.776Z,0.8
2023-01-13T00:03:28.805Z,0.8
2023-01-13T00:06:32.115Z,0.8
2023-01-13T00:09:32.690Z,0.8
2023-01-13T00:12:28.693Z,0.8
2023-01-13T00:15:29.002Z,0.8
2023-01-13T00:18:32.360Z,0.8
2023-01-13T00:21:28.676Z,0.8
2023-01-13T00:24:28.882Z,0.8
2023-01-13T00:27:32.425Z,0.8
2023-01-13T00:30:28.522Z,0.8
2023-01-13T00:33:28.649Z,0.8
2023-01-13T00:36:31.905Z,0.8
2023-01-13T00:39:28.305Z,0.8
2023-01-13T00:42:29.155Z,0.8
2023-01-13T00:45:29.092Z,0.8
2023-01-13T00:48:56.573Z,0.8
2023-01-13T00:51:28.940Z,0.8
2023-01-13T00:54:28.865Z,0.8
2023-01-13T00:57:31.972Z,0.8
2023-01-13T01:00:29.007Z,0.8
2023-01-13T01:03:29.180Z,0.8
2023-01-13T01:06:32.322Z,0.8
2023-01-13T01:09:28.213Z,0.8
2023-01-13T01:12:29.095Z,0.8
2023-01-13T01:15:32.469Z,0.8
2023-01-13T01:18:28.429Z,0.8
2023-01-13T01:21:28.421Z,0.8
2023-01-13T01:24:31.691Z,0.8
2023-01-13T01:27:28.724Z,0.8
2023-01-13T01:30:28.714Z,0.8
2023-01-13T01:33:28.927Z,0.8
2023-01-13T01:36:32.292Z,0.8
2023-01-13T01:39:28.504Z,0.8
2023-01-13T01:42:28.569Z,0.8
2023-01-13T01:45:31.874Z,0.8
2023-01-13T01:48:29.029Z,0.8
2023-01-13T01:51:29.106Z,0.8
2023-01-13T01:54:32.623Z,0.8
2023-01-13T01:57:28.663Z,0.8
2023-01-13T02:00:28.855Z,0.8
2023-01-13T02:03:32.129Z,0.8
2023-01-13T02:06:28.962Z,0.8
2023-01-13T02:09:29.156Z,0.8
2023-01-13T02:12:29.276Z,0.8
2023-01-13T02:15:31.791Z,0.8
2023-01-13T02:18:29.029Z,0.8
2023-01-13T02:21:28.840Z,0.8
2023-01-13T02:24:32.628Z,0.8
2023-01-13T02:27:29.527Z,0.8
2023-01-13T02:30:29.065Z,0.8
2023-01-13T02:33:32.348Z,0.8
2023-01-13T02:36:28.445Z,0.8
2023-01-13T02:39:28.400Z,0.8
2023-01-13T02:42:31.791Z,0.8
2023-01-13T02:45:29.165Z,0.8
2023-01-13T02:48:29.100Z,0.8
2023-01-13T02:51:29.069Z,0.8
2023-01-13T02:54:32.181Z,0.8
2023-01-13T02:57:28.472Z,0.8
2023-01-13T03:00:28.673Z,0.8
2023-01-13T03:03:32.199Z,0.8
2023-01-13T03:06:28.479Z,0.8
2023-01-13T03:09:28.504Z,0.8
2023-01-13T03:12:31.816Z,0.8
2023-01-13T03:15:29.057Z,0.8
2023-01-13T03:18:29.055Z,0.8
2023-01-13T03:21:32.431Z,0.8
2023-01-13T03:24:28.894Z,0.8
2023-01-13T03:27:28.946Z,0.8
2023-01-13T03:30:29.770Z,0.8
2023-01-13T03:33:32.340Z,0.8
2023-01-13T03:36:28.706Z,0.8
2023-01-13T03:39:28.931Z,0.8
2023-01-13T03:42:32.164Z,0.8
2023-01-13T03:45:29.419Z,0.8
2023-01-13T03:48:28.448Z,0.8
2023-01-13T03:51:31.736Z,0.8
2023-01-13T03:54:28.850Z,0.8
2023-01-13T03:57:28.933Z,0.8
2023-01-13T04:00:32.721Z,0.8
2023-01-13T04:03:29.391Z,0.8
2023-01-13T04:06:28.412Z,0.8
2023-01-13T04:09:28.388Z,0.8
2023-01-13T04:12:31.675Z,0.8
2023-01-13T04:15:29.348Z,0.8
2023-01-13T04:18:28.654Z,0.8
2023-01-13T04:21:32.306Z,0.8
2023-01-13T04:24:28.380Z,0.8
2023-01-13T04:27:28.562Z,0.8
2023-01-13T04:30:32.913Z,0.8
2023-01-13T04:33:28.764Z,0.8
2023-01-13T04:36:28.735Z,0.8
2023-01-13T04:39:31.880Z,0.8
2023-01-13T04:42:28.952Z,0.8
2023-01-13T04:45:29.136Z,0.8
2023-01-13T04:48:28.909Z,0.8
2023-01-13T04:51:32.080Z,0.8
2023-01-13T04:54:28.345Z,0.8
2023-01-13T04:57:28.368Z,0.8
2023-01-13T05:00:31.905Z,0.8
2023-01-13T05:03:29.397Z,0.8
2023-01-13T05:06:28.615Z,0.8
2023-01-13T05:09:32.539Z,0.8
2023-01-13T05:12:28.962Z,0.8
2023-01-13T05:15:28.298Z,0.8
2023-01-13T05:18:32.607Z,0.8
2023-01-13T05:21:29.041Z,0.8
2023-01-13T05:24:28.758Z,0.8
2023-01-13T05:27:29.114Z,0.8
2023-01-13T05:30:32.562Z,0.8
2023-01-13T05:33:28.741Z,0.8
2023-01-13T05:36:28.509Z,0.8
2023-01-13T05:39:32.152Z,0.8
2023-01-13T05:42:28.754Z,0.8
2023-01-13T05:45:29.121Z,0.8
2023-01-13T05:48:32.424Z,0.8
2023-01-13T05:51:29.035Z,0.8
2023-01-13T05:54:28.718Z,0.8
2023-01-13T05:57:31.793Z,0.8
2023-01-13T06:00:28.936Z,0.8
2023-01-13T06:03:30.209Z,0.8
2023-01-13T06:06:29.087Z,0.8
2023-01-13T06:09:32.596Z,0.8
2023-01-13T06:12:29.290Z,0.8
2023-01-13T06:15:28.727Z,0.8
2023-01-13T06:18:32.244Z,0.8
2023-01-13T06:21:28.875Z,0.8
2023-01-13T06:24:29.377Z,0.8
2023-01-13T06:27:32.169Z,0.8
2023-01-13T06:30:29.020Z,0.8
2023-01-13T06:33:28.635Z,0.8
2023-01-13T06:36:32.046Z,0.8
2023-01-13T06:39:28.396Z,0.8
2023-01-13T06:42:48.242Z,0.8
2023-01-13T06:45:28.415Z,0.8
2023-01-13T06:48:31.913Z,0.8
2023-01-13T06:51:29.220Z,0.8
2023-01-13T06:54:28.625Z,0.8
2023-01-13T06:57:32.003Z,0.8
2023-01-13T07:00:29.322Z,0.8
2023-01-13T07:03:29.404Z,0.8
2023-01-13T07:06:32.090Z,0.8
2023-01-13T07:09:28.848Z,0.8
2023-01-13T07:12:28.846Z,0.8
2023-01-13T07:15:32.515Z,0.9
2023-01-13T07:18:29.032Z,0.9
2023-01-13T07:21:29.005Z,0.9
2023-01-13T07:24:28.889Z,0.9
2023-01-13T07:27:32.527Z,1
2023-01-13T07:30:28.930Z,1
2023-01-13T07:33:29.247Z,1
2023-01-13T07:36:31.831Z,1.4
2023-01-13T07:39:29.257Z,1.4
2023-01-13T07:42:29.317Z,1.4
2023-01-13T07:45:32.971Z,1.8
2023-01-13T07:48:29.317Z,1.8
2023-01-13T07:51:28.694Z,1.8
2023-01-13T07:54:45.239Z,2.2
2023-01-13T07:57:29.290Z,2.2
2023-01-13T08:00:29.056Z,2.2
2023-01-13T08:03:29.273Z,2.2
2023-01-13T08:06:32.289Z,2.6
2023-01-13T08:09:28.921Z,2.6
2023-01-13T08:12:29.612Z,2.6
2023-01-13T08:15:32.452Z,3
2023-01-13T08:18:28.812Z,3
2023-01-13T08:21:29.078Z,3
2023-01-13T08:24:32.834Z,3.4
2023-01-13T08:27:29.187Z,3.4
2023-01-13T08:30:30.542Z,3.4
2023-01-13T08:33:32.554Z,3.7
2023-01-13T08:36:28.830Z,3.7
2023-01-13T08:39:28.513Z,3.7
2023-01-13T08:42:28.884Z,3.7
2023-01-13T08:45:32.595Z,4
2023-01-13T08:48:32.372Z,4
2023-01-13T08:51:28.663Z,4
2023-01-13T08:54:32.323Z,4
2023-01-13T08:57:29.151Z,4
2023-01-13T09:00:29.166Z,4
2023-01-13T09:03:31.646Z,4
2023-01-13T09:06:29.316Z,4
2023-01-13T09:09:28.883Z,4
2023-01-13T09:12:31.876Z,4
2023-01-13T09:15:30.488Z,4
2023-01-13T09:18:29.052Z,4
2023-01-13T09:21:29.092Z,4
2023-01-13T09:24:32.643Z,4.1
2023-01-13T09:27:29.082Z,4.1
2023-01-13T09:30:29.191Z,4.1
2023-01-13T09:33:32.011Z,4.1
2023-01-13T09:36:28.691Z,4.1
2023-01-13T09:39:28.940Z,4.1
2023-01-13T09:42:32.615Z,4.1
2023-01-13T09:45:29.169Z,4.1
2023-01-13T09:48:29.431Z,4.1
2023-01-13T09:51:32.695Z,4.1
2023-01-13T09:54:28.482Z,4.1
2023-01-13T09:57:28.706Z,4.1
2023-01-13T10:00:28.911Z,4.1
2023-01-13T10:03:32.896Z,4.1
2023-01-13T10:06:28.495Z,4.1
2023-01-13T10:09:28.981Z,4.1
2023-01-13T10:12:32.716Z,4.1
2023-01-13T10:15:28.938Z,4.1
2023-01-13T10:18:28.951Z,4.1
2023-01-13T10:21:31.734Z,4.1
2023-01-13T10:24:29.124Z,4.1
2023-01-13T10:27:28.427Z,4.1
2023-01-13T10:30:32.217Z,4
2023-01-13T10:33:28.964Z,4
2023-01-13T10:36:28.656Z,4
2023-01-13T10:39:28.887Z,4
2023-01-13T10:42:32.317Z,4
2023-01-13T10:45:28.783Z,4
2023-01-13T10:48:29.004Z,4
2023-01-13T10:51:32.868Z,4
2023-01-13T10:54:28.842Z,4
2023-01-13T10:57:28.887Z,4
2023-01-13T11:00:32.581Z,4
2023-01-13T11:03:29.217Z,4
2023-01-13T11:06:29.464Z,4
2023-01-13T11:09:32.023Z,4.1
2023-01-13T11:12:29.365Z,4.1
2023-01-13T11:15:28.649Z,4.1
2023-01-13T11:18:28.930Z,4.1
2023-01-13T11:21:32.645Z,4.1
2023-01-13T11:24:29.166Z,4.1
2023-01-13T11:27:29.396Z,4.1
2023-01-13T11:30:32.085Z,4.1
2023-01-13T11:33:28.604Z,4.1
2023-01-13T11:36:29.055Z,4.1
2023-01-13T11:39:32.575Z,4.1
2023-01-13T11:42:28.976Z,4.1
2023-01-13T11:45:29.450Z,4.1
2023-01-13T11:48:32.035Z,4.2
2023-01-13T11:51:28.667Z,4.2
2023-01-13T11:54:29.144Z,4.2
2023-01-13T11:57:29.397Z,4.2
2023-01-13T12:00:32.402Z,4.1
2023-01-13T12:03:29.283Z,4.1
2023-01-13T12:06:28.576Z,4.1
2023-01-13T12:09:32.099Z,4.1
2023-01-13T12:12:28.482Z,4.1
2023-01-13T12:15:28.548Z,4.1
2023-01-13T12:18:32.057Z,4.1
2023-01-13T12:21:28.576Z,4.1
2023-01-13T12:24:28.865Z,4.1
2023-01-13T12:27:32.539Z,4.1
2023-01-13T12:30:29.393Z,4.1
2023-01-13T12:33:28.581Z,4.1
2023-01-13T12:36:31.581Z,4.1
2023-01-13T12:40:31.948Z,4
2023-01-13T12:42:28.907Z,4
2023-01-13T12:45:29.266Z,4
2023-01-13T12:48:32.797Z,4
2023-01-13T12:51:28.770Z,4
2023-01-13T12:54:28.901Z,4
2023-01-13T12:57:32.287Z,4
2023-01-13T13:00:28.873Z,4
2023-01-13T13:03:29.132Z,4
2023-01-13T13:06:32.423Z,4
2023-01-13T13:09:28.797Z,4
2023-01-13T13:12:28.699Z,4
2023-01-13T13:15:32.045Z,4
2023-01-13T13:18:29.218Z,4
2023-01-13T13:21:28.439Z,4
2023-01-13T13:24:28.697Z,4
2023-01-13T13:27:32.044Z,4
2023-01-13T13:30:28.615Z,4
2023-01-13T13:33:28.471Z,4
2023-01-13T13:36:32.017Z,4
2023-01-13T13:39:30.362Z,4
2023-01-13T13:42:28.434Z,4
2023-01-13T13:45:31.825Z,4
2023-01-13T13:48:29.447Z,4
2023-01-13T13:51:28.814Z,4
2023-01-13T13:54:32.304Z,4
2023-01-13T13:57:28.750Z,4
2023-01-13T14:00:28.939Z,4
2023-01-13T14:03:29.179Z,4
2023-01-13T14:06:31.823Z,4
2023-01-13T14:09:29.057Z,4
2023-01-13T14:12:29.152Z,4
2023-01-13T14:15:32.306Z,4
2023-01-13T14:18:29.026Z,4
2023-01-13T14:21:29.219Z,4
2023-01-13T14:24:31.591Z,4
2023-01-13T14:27:28.866Z,4
2023-01-13T14:30:28.825Z,4
2023-01-13T14:33:31.905Z,4
2023-01-13T14:36:28.437Z,4
2023-01-13T14:39:28.308Z,4
2023-01-13T14:42:28.708Z,4
2023-01-13T14:45:32.242Z,3.8
2023-01-13T14:48:28.754Z,3.8
2023-01-13T14:51:28.949Z,3.8
2023-01-13T14:54:32.603Z,3.5
2023-01-13T14:57:29.011Z,3.5
2023-01-13T15:00:32.810Z,3.5
2023-01-13T15:03:43.274Z,3.5
2023-01-13T15:06:28.594Z,3.5
2023-01-13T15:09:28.668Z,3.5
2023-01-13T15:12:32.700Z,3.4
2023-01-13T15:15:29.191Z,3.4
2023-01-13T15:18:29.124Z,3.4
2023-01-13T15:21:29.261Z,3.4
2023-01-13T15:24:32.810Z,3.3
2023-01-13T15:27:29.231Z,3.3
2023-01-13T15:30:30.481Z,3.3
2023-01-13T15:33:31.826Z,3
2023-01-13T15:36:28.703Z,3
2023-01-13T15:39:28.813Z,3
2023-01-13T15:42:31.676Z,2.7
2023-01-13T15:45:28.990Z,2.7
2023-01-13T15:48:29.071Z,2.7
2023-01-13T15:51:32.460Z,2.3
2023-01-13T15:54:28.543Z,2.3
2023-01-13T15:57:28.763Z,2.3
2023-01-13T16:00:36.763Z,2.3
2023-01-13T16:03:32.370Z,2.2
2023-01-13T16:06:29.429Z,2.2
2023-01-13T16:09:28.685Z,2.2
2023-01-13T16:12:32.138Z,2
2023-01-13T16:15:28.567Z,2
2023-01-13T16:18:28.434Z,2
2023-01-13T16:21:32.135Z,1.7
2023-01-13T16:24:28.663Z,1.7
2023-01-13T16:27:29.330Z,1.7
2023-01-13T16:30:39.469Z,1.3
2023-01-13T16:33:28.933Z,1.3
2023-01-13T16:36:30.756Z,1.3
2023-01-13T16:39:28.881Z,1.3
2023-01-13T16:42:32.466Z,1.1
2023-01-13T16:45:29.337Z,1.1
2023-01-13T16:48:28.631Z,1.1
2023-01-13T16:51:32.182Z,0.9
2023-01-13T16:54:28.939Z,0.9
2023-01-13T16:57:28.796Z,0.9
2023-01-13T17:00:32.405Z,0.8
2023-01-13T17:03:29.681Z,0.8
2023-01-13T17:06:29.010Z,0.8
2023-01-13T17:09:33.044Z,0.8
2023-01-13T17:12:29.335Z,0.8
2023-01-13T17:15:29.172Z,0.8
2023-01-13T17:18:28.682Z,0.8
2023-01-13T17:21:32.137Z,0.8
2023-01-13T17:24:29.361Z,0.8
2023-01-13T17:27:29.324Z,0.8
2023-01-13T17:30:31.751Z,0.8
2023-01-13T17:33:28.726Z,0.8
2023-01-13T17:36:28.430Z,0.8
2023-01-13T17:39:32.515Z,0.8
2023-01-13T17:42:29.109Z,0.8
2023-01-13T17:45:28.872Z,0.8
2023-01-13T17:48:32.602Z,0.8
2023-01-13T17:51:28.902Z,0.8
2023-01-13T17:54:29.227Z,0.8
2023-01-13T17:57:29.340Z,0.8
2023-01-13T18:00:32.623Z,0.8
2023-01-13T18:03:28.577Z,0.8
2023-01-13T18:06:29.167Z,0.8
2023-01-13T18:09:31.973Z,0.8
2023-01-13T18:12:28.181Z,0.8
2023-01-13T18:15:29.199Z,0.8
2023-01-13T18:18:33.038Z,0.8
2023-01-13T18:21:29.255Z,0.8
2023-01-13T18:24:29.062Z,0.8
2023-01-13T18:27:32.198Z,0.8
2023-01-13T18:30:29.190Z,0.8
2023-01-13T18:33:28.968Z,0.8
2023-01-13T18:36:28.979Z,0.8
2023-01-13T18:39:32.099Z,0.8
2023-01-13T18:42:29.041Z,0.8
2023-01-13T18:45:28.428Z,0.8
2023-01-13T18:48:31.813Z,0.8
2023-01-13T18:51:28.698Z,0.8
2023-01-13T18:54:28.865Z,0.8
2023-01-13T18:57:32.395Z,0.8
2023-01-13T19:00:30.184Z,0.8
2023-01-13T19:03:31.117Z,0.8
2023-01-13T19:06:35.131Z,0.8
2023-01-13T19:09:28.431Z,0.8
2023-01-13T19:12:28.374Z,0.8
2023-01-13T19:15:29.057Z,0.8
2023-01-13T19:18:31.595Z,0.8
2023-01-13T19:21:28.584Z,0.8
2023-01-13T19:24:28.538Z,0.8
2023-01-13T19:27:31.887Z,0.8
2023-01-13T19:30:28.973Z,0.8
2023-01-13T19:33:29.032Z,0.8
2023-01-13T19:36:32.497Z,0.8
2023-01-13T19:39:28.422Z,0.8
2023-01-13T19:42:28.415Z,0.8
2023-01-13T19:45:32.593Z,0.8
2023-01-13T19:48:28.748Z,0.8
2023-01-13T19:51:28.742Z,0.8
2023-01-13T19:54:29.100Z,0.8
2023-01-13T19:57:32.115Z,0.8
2023-01-13T20:00:28.872Z,0.8
2023-01-13T20:03:31.340Z,0.8
2023-01-13T20:06:31.583Z,0.8
2023-01-13T20:09:28.702Z,0.8
2023-01-13T20:12:28.360Z,0.8
2023-01-13T20:15:31.697Z,0.8
2023-01-13T20:18:29.249Z,0.8
2023-01-13T20:21:28.295Z,0.8
2023-01-13T20:24:32.374Z,0.8
2023-01-13T20:27:29.063Z,0.8
2023-01-13T20:30:29.329Z,0.8
2023-01-13T20:33:28.655Z,0.8
2023-01-13T20:36:32.738Z,0.8
2023-01-13T20:39:28.243Z,0.8
2023-01-13T20:42:29.069Z,0.8
2023-01-13T20:45:32.484Z,0.8
2023-01-13T20:48:28.173Z,0.8
2023-01-13T20:51:28.883Z,0.8
2023-01-13T20:54:32.185Z,0.8
2023-01-13T20:57:29.095Z,0.8
2023-01-13T21:00:29.334Z,0.8
2023-01-13T21:03:31.875Z,0.8
2023-01-13T21:06:29.088Z,0.8
2023-01-13T21:09:28.548Z,0.8
2023-01-13T21:12:29.167Z,0.8
2023-01-13T21:15:31.659Z,0.8
2023-01-13T21:18:28.349Z,0.8
2023-01-13T21:21:29.125Z,0.8
2023-01-13T21:24:31.724Z,0.8
2023-01-13T21:27:28.627Z,0.8
2023-01-13T21:30:48.198Z,0.8
2023-01-13T21:33:31.903Z,0.8
2023-01-13T21:36:35.726Z,0.8
2023-01-13T21:39:28.841Z,0.8
2023-01-13T21:42:32.361Z,0.8
2023-01-13T21:45:29.526Z,0.8
2023-01-13T21:48:28.766Z,0.8
2023-01-13T21:51:28.842Z,0.8
2023-01-13T21:54:42.764Z,0.8
2023-01-13T21:57:28.525Z,0.8
2023-01-13T22:00:29.153Z,0.8
2023-01-13T22:03:32.242Z,0.8
2023-01-13T22:06:28.587Z,0.8
2023-01-13T22:09:28.642Z,0.8
2023-01-13T22:12:32.262Z,0.8
2023-01-13T22:15:28.595Z,0.8
2023-01-13T22:18:28.618Z,0.8
2023-01-13T22:21:31.954Z,0.8
2023-01-13T22:24:29.120Z,0.8
2023-01-13T22:27:29.027Z,0.8
2023-01-13T22:30:30.379Z,0.8
2023-01-13T22:33:32.544Z,0.8
2023-01-13T22:36:28.900Z,0.8
2023-01-13T22:39:28.946Z,0.8
2023-01-13T22:42:32.092Z,0.8
2023-01-13T22:45:28.753Z,0.8
2023-01-13T22:48:29.102Z,0.8
2023-01-13T22:51:32.471Z,0.8
2023-01-13T22:54:28.958Z,0.8
2023-01-13T22:57:48.818Z,0.8
2023-01-13T23:00:37.631Z,0.8
2023-01-13T23:03:29.522Z,0.8
2023-01-13T23:06:28.331Z,0.8
2023-01-13T23:09:28.942Z,0.8
2023-01-13T23:12:32.279Z,0.8
2023-01-13T23:15:28.293Z,0.8
2023-01-13T23:18:28.364Z,0.8
2023-01-13T23:21:32.471Z,0.8
2023-01-13T23:24:28.803Z,0.8
2023-01-13T23:27:28.718Z,0.8
2023-01-13T23:30:33.277Z,0.8
2023-01-13T23:33:28.859Z,0.8
2023-01-13T23:36:28.967Z,0.8
2023-01-13T23:39:32.351Z,0.8
2023-01-13T23:42:28.816Z,0.8
2023-01-13T23:45:28.730Z,0.8
2023-01-13T23:48:28.932Z,0.8
2023-01-13T23:51:31.562Z,0.8
2023-01-13T23:54:29.095Z,0.8
2023-01-13T23:57:29.543Z,0.8
